Time;durP1;ratioP1;P1;durP2;ratioP2;P2;SDS_P1;SDS_P2;PMS_P1;PMS_P2;Temp;Humidity;BMP_temperature;BMP_pressure;BME280_temperature;BME280_humidity;BME280_pressure;Samples;Min_cycle;Max_cycle;Signal;HPM_P1;HPM_P2
2022/01/14 00:01:46;;;;;;;80.07;21.60;;;4.50;99.90;;;;;;4841962;29;20045;-77
2022/01/14 00:04:13;;;;;;;63.55;19.17;;;4.50;99.90;;;;;;4843300;29;20065;-77
2022/01/14 00:06:39;;;;;;;84.35;21.88;;;4.60;99.90;;;;;;4806320;29;20045;-78
2022/01/14 00:09:09;;;;;;;125.07;25.58;;;4.60;99.90;;;;;;4839266;29;20045;-78
2022/01/14 00:11:43;;;;;;;67.95;19.52;;;4.60;99.90;;;;;;4854821;29;20426;-78
2022/01/14 00:14:21;;;;;;;137.05;26.70;;;4.60;99.90;;;;;;4840702;29;20034;-78
2022/01/14 00:16:48;;;;;;;60.78;20.33;;;4.60;99.90;;;;;;4840851;29;20042;-78
2022/01/14 00:19:16;;;;;;;40.67;17.33;;;4.60;99.90;;;;;;4841511;29;20045;-78
2022/01/14 00:21:44;;;;;;;66.80;19.90;;;4.60;99.90;;;;;;4843666;29;20427;-78
2022/01/14 00:32:11;;;;;;;63.85;18.48;;;4.60;99.90;;;;;;4843212;29;20042;-77
2022/01/14 00:34:37;;;;;;;62.88;19.85;;;4.70;99.90;;;;;;4842793;29;20114;-77
2022/01/14 00:37:04;;;;;;;59.60;22.45;;;4.60;99.90;;;;;;4838449;29;20030;-77
2022/01/14 00:39:30;;;;;;;49.55;19.42;;;4.60;99.90;;;;;;4842340;29;20049;-77
2022/01/14 00:41:57;;;;;;;49.63;19.88;;;4.60;99.90;;;;;;4839151;29;20411;-77
2022/01/14 00:44:24;;;;;;;63.70;24.50;;;4.60;99.90;;;;;;4837771;29;20516;-78
2022/01/14 00:46:50;;;;;;;81.80;24.40;;;4.60;99.90;;;;;;4839959;29;20057;-78
2022/01/14 00:49:18;;;;;;;58.97;21.30;;;4.60;99.90;;;;;;4823848;29;20038;-78
2022/01/14 00:51:45;;;;;;;54.45;22.23;;;4.60;99.90;;;;;;4841639;29;20037;-78
2022/01/14 00:54:12;;;;;;;66.30;22.00;;;4.60;99.90;;;;;;4842691;29;20504;-78
2022/01/14 00:59:15;;;;;;;49.50;19.77;;;4.60;99.90;;;;;;4843010;29;20061;-78
2022/01/14 01:01:52;;;;;;;56.22;21.17;;;4.60;99.90;;;;;;4839729;29;20064;-80
2022/01/14 01:04:20;;;;;;;52.67;19.77;;;4.60;99.90;;;;;;4844527;29;20504;-78
2022/01/14 01:06:48;;;;;;;57.75;19.75;;;4.60;99.90;;;;;;4842390;29;20041;-78
2022/01/14 01:09:16;;;;;;;54.63;22.27;;;4.60;99.90;;;;;;4838722;29;20034;-78
2022/01/14 01:11:51;;;;;;;53.13;20.98;;;4.60;99.90;;;;;;4845159;29;20053;-78
2022/01/14 01:14:27;;;;;;;57.50;20.02;;;4.60;99.90;;;;;;4841572;29;20045;-78
2022/01/14 01:16:53;;;;;;;55.47;20.70;;;4.60;99.90;;;;;;4842026;29;20042;-78
2022/01/14 01:19:20;;;;;;;48.35;19.05;;;4.60;99.90;;;;;;4842078;29;20038;-78
2022/01/14 01:21:46;;;;;;;55.77;21.00;;;4.60;99.90;;;;;;4843067;29;20686;-78
2022/01/14 01:24:14;;;;;;;53.90;19.33;;;4.60;99.90;;;;;;4844713;29;20045;-78
2022/01/14 01:26:42;;;;;;;48.30;20.05;;;4.60;99.90;;;;;;4838352;29;20030;-78
2022/01/14 01:31:39;;;;;;;59.50;22.20;;;4.60;99.90;;;;;;4843169;29;20072;-78
2022/01/14 01:34:15;;;;;;;60.40;20.05;;;4.60;99.90;;;;;;4845877;29;20046;-78
2022/01/14 01:36:43;;;;;;;60.58;21.40;;;4.60;99.90;;;;;;4845854;29;20675;-78
2022/01/14 01:39:13;;;;;;;59.60;22.70;;;4.60;99.90;;;;;;4845319;29;20033;-78
2022/01/14 01:41:46;;;;;;;64.13;24.58;;;4.60;99.90;;;;;;4829138;29;20041;-78
2022/01/14 01:44:14;;;;;;;84.28;25.80;;;4.60;99.90;;;;;;4839799;29;20038;-78
2022/01/14 01:46:43;;;;;;;63.28;24.58;;;4.60;99.90;;;;;;4832431;29;20041;-77
2022/01/14 01:49:10;;;;;;;77.38;25.33;;;4.60;99.90;;;;;;4841401;29;20048;-78
2022/01/14 01:51:37;;;;;;;66.50;25.98;;;4.60;99.90;;;;;;4840405;29;20390;-77
2022/01/14 01:54:04;;;;;;;65.50;24.53;;;4.60;99.90;;;;;;4839062;29;20068;-78
2022/01/14 01:56:30;;;;;;;59.47;21.33;;;4.60;99.90;;;;;;4840317;29;20042;-78
2022/01/14 01:58:57;;;;;;;71.03;23.33;;;4.60;99.90;;;;;;4843847;29;20026;-78
2022/01/14 02:01:24;;;;;;;68.13;22.77;;;4.60;99.90;;;;;;4846168;29;20290;-78
2022/01/14 02:03:54;;;;;;;97.53;25.80;;;4.70;99.90;;;;;;4847267;29;20042;-78
2022/01/14 02:06:21;;;;;;;83.53;26.40;;;4.60;99.90;;;;;;4840500;29;20038;-78
2022/01/14 02:08:48;;;;;;;74.10;24.30;;;4.60;99.90;;;;;;4838710;29;20049;-78
2022/01/14 02:11:15;;;;;;;72.60;27.85;;;4.60;99.90;;;;;;4842207;29;20033;-78
2022/01/14 02:13:42;;;;;;;67.13;25.67;;;4.60;99.90;;;;;;4840319;29;20259;-78
2022/01/14 02:16:17;;;;;;;56.35;20.45;;;4.60;99.90;;;;;;4839143;29;20508;-78
2022/01/14 02:19:12;;;;;;;70.50;26.75;;;4.60;99.90;;;;;;4848288;29;20675;-78
2022/01/14 02:24:33;;;;;;;148.95;31.85;;;4.50;99.90;;;;;;4839528;29;20037;-78
2022/01/14 02:27:00;;;;;;;69.45;23.73;;;4.50;99.90;;;;;;4823033;29;20053;-78
2022/01/14 02:29:27;;;;;;;59.50;21.63;;;4.50;99.90;;;;;;4828128;29;20046;-78
2022/01/14 02:31:54;;;;;;;74.53;25.20;;;4.50;99.90;;;;;;4845656;29;20508;-78
2022/01/14 02:34:20;;;;;;;78.15;23.10;;;4.50;99.90;;;;;;4846835;29;20033;-78
2022/01/14 02:36:47;;;;;;;77.03;23.88;;;4.50;99.90;;;;;;4839056;29;20367;-78
2022/01/14 02:39:16;;;;;;;70.43;21.98;;;4.50;99.90;;;;;;4833845;29;20049;-78
2022/01/14 02:41:43;;;;;;;106.15;26.45;;;4.50;99.90;;;;;;4841788;29;20029;-78
2022/01/14 02:44:23;;;;;;;77.28;23.02;;;4.50;99.90;;;;;;4841922;29;20089;-78
2022/01/14 02:46:56;;;;;;;65.57;24.42;;;4.50;99.90;;;;;;4823241;29;20045;-78
2022/01/14 02:49:29;;;;;;;83.95;25.80;;;4.50;99.90;;;;;;4845471;29;20041;-78
2022/01/14 02:51:56;;;;;;;;;;;4.50;99.90;;;;;;4844790;29;20030;-78
2022/01/14 02:54:31;;;;;;;59.08;22.55;;;4.50;99.90;;;;;;4842542;29;19920;-78
2022/01/14 02:56:58;;;;;;;79.45;26.35;;;4.50;99.90;;;;;;4845124;29;20033;-78
2022/01/14 02:59:27;;;;;;;66.65;24.90;;;4.40;99.90;;;;;;4820213;29;20053;-78
2022/01/14 03:01:54;;;;;;;61.30;21.80;;;4.40;99.90;;;;;;4842679;29;20050;-78
2022/01/14 03:04:21;;;;;;;57.08;21.85;;;4.40;99.90;;;;;;4827069;29;20033;-78
2022/01/14 03:06:48;;;;;;;66.47;23.20;;;4.40;99.90;;;;;;4841912;29;20042;-78
2022/01/14 03:09:15;;;;;;;63.28;20.35;;;4.40;99.90;;;;;;4843684;29;20042;-78
2022/01/14 03:11:48;;;;;;;74.55;24.50;;;4.40;99.90;;;;;;4843662;29;20044;-78
2022/01/14 03:14:22;;;;;;;68.13;22.90;;;4.50;99.90;;;;;;4854143;29;20037;-78
2022/01/14 03:16:51;;;;;;;64.53;22.67;;;4.50;99.90;;;;;;4825348;29;20049;-78
2022/01/14 03:19:24;;;;;;;65.25;22.42;;;4.50;99.90;;;;;;4840468;29;20041;-78
2022/01/14 03:22:05;;;;;;;78.45;24.27;;;4.50;99.90;;;;;;4844542;29;20044;-78
2022/01/14 03:27:04;;;;;;;91.90;24.58;;;4.50;99.90;;;;;;4844198;29;20045;-78
2022/01/14 03:29:30;;;;;;;65.73;21.47;;;4.60;99.90;;;;;;4828090;29;20056;-78
2022/01/14 03:31:57;;;;;;;72.55;23.50;;;4.60;99.90;;;;;;4848311;29;20037;-78
2022/01/14 03:34:23;;;;;;;62.20;23.27;;;4.50;99.90;;;;;;4844713;29;20034;-79
2022/01/14 03:36:50;;;;;;;67.88;22.52;;;4.60;99.90;;;;;;4840920;29;20438;-78
2022/01/14 03:39:17;;;;;;;71.03;23.60;;;4.60;99.90;;;;;;4846464;29;20038;-79
2022/01/14 03:41:44;;;;;;;64.05;22.20;;;4.60;99.90;;;;;;4843890;29;20048;-78
2022/01/14 03:44:10;;;;;;;60.92;23.23;;;4.60;99.90;;;;;;4840541;29;20042;-78
2022/01/14 03:46:37;;;;;;;65.72;23.05;;;4.60;99.90;;;;;;4846007;29;20041;-79
2022/01/14 03:49:03;;;;;;;65.70;21.92;;;4.60;99.90;;;;;;4845880;29;20036;-79
2022/01/14 03:51:29;;;;;;;35.70;15.98;;;4.60;99.90;;;;;;4843620;29;20042;-78
2022/01/14 03:53:56;;;;;;;63.35;21.63;;;4.60;99.90;;;;;;4828663;29;20045;-78
2022/01/14 03:56:23;;;;;;;60.17;19.73;;;4.60;99.90;;;;;;4841124;29;20466;-79
2022/01/14 03:58:50;;;;;;;69.18;22.60;;;4.60;99.90;;;;;;4844979;29;20041;-78
2022/01/14 04:01:16;;;;;;;67.10;22.73;;;4.60;99.90;;;;;;4847228;29;20052;-78
2022/01/14 04:03:42;;;;;;;77.82;24.30;;;4.60;99.90;;;;;;4842956;29;20041;-79
2022/01/14 04:06:12;;;;;;;51.70;22.50;;;4.60;99.90;;;;;;4845719;29;20042;-78
2022/01/14 04:08:38;;;;;;;49.53;19.13;;;4.60;99.90;;;;;;4842677;29;20033;-78
2022/01/14 04:11:06;;;;;;;69.85;22.15;;;4.50;99.90;;;;;;4838222;29;20030;-79
2022/01/14 04:13:52;;;;;;;58.72;21.60;;;4.50;99.90;;;;;;4838190;29;20037;-79
2022/01/14 04:16:19;;;;;;;66.10;21.33;;;4.50;99.90;;;;;;4832684;29;20398;-78
2022/01/14 04:18:47;;;;;;;66.80;21.30;;;4.50;99.90;;;;;;4827670;29;20030;-79
2022/01/14 04:21:14;;;;;;;80.32;23.92;;;4.50;99.90;;;;;;4841809;29;20045;-79
2022/01/14 04:23:40;;;;;;;73.07;24.77;;;4.50;99.90;;;;;;4843234;29;20038;-79
2022/01/14 04:26:06;;;;;;;74.47;23.85;;;4.50;99.90;;;;;;4843367;29;20076;-78
2022/01/14 04:28:36;;;;;;;63.45;23.48;;;4.50;99.90;;;;;;4842932;29;20042;-79
2022/01/14 04:31:04;;;;;;;69.40;22.80;;;4.50;99.90;;;;;;4844799;29;20045;-78
2022/01/14 04:33:32;;;;;;;204.18;34.00;;;4.50;99.90;;;;;;4842044;29;20030;-79
2022/01/14 04:35:59;;;;;;;61.00;23.83;;;4.50;99.90;;;;;;4829310;29;20029;-78
2022/01/14 04:38:27;;;;;;;62.77;22.03;;;4.40;99.90;;;;;;4841175;29;20052;-78
2022/01/14 04:40:54;;;;;;;93.70;24.15;;;4.50;99.90;;;;;;4844781;29;20030;-79
2022/01/14 04:43:21;;;;;;;60.78;23.70;;;4.50;99.90;;;;;;4842898;29;20034;-78
2022/01/14 04:48:22;;;;;;;67.70;21.33;;;4.50;99.90;;;;;;4841343;29;20045;-78
2022/01/14 04:50:51;;;;;;;53.63;17.38;;;4.50;99.90;;;;;;4844270;29;20040;-79
2022/01/14 04:53:18;;;;;;;80.60;25.42;;;4.50;99.90;;;;;;4842702;29;20053;-78
2022/01/14 04:55:44;;;;;;;61.03;22.05;;;4.50;99.90;;;;;;4844925;29;20030;-79
2022/01/14 04:58:10;;;;;;;67.30;24.73;;;4.50;99.90;;;;;;4840941;29;20037;-78
2022/01/14 05:00:38;;;;;;;69.00;22.60;;;4.50;99.90;;;;;;4845508;29;20060;-79
2022/01/14 05:03:05;;;;;;;53.17;21.52;;;4.50;99.90;;;;;;4827497;29;20042;-78
2022/01/14 05:05:35;;;;;;;64.75;21.58;;;4.50;99.90;;;;;;4842819;29;20078;-78
2022/01/14 05:08:02;;;;;;;60.03;21.10;;;4.60;99.90;;;;;;4846480;29;20034;-79
2022/01/14 05:12:54;;;;;;;59.20;21.58;;;4.50;99.90;;;;;;4848445;29;20057;-78
2022/01/14 05:15:21;;;;;;;58.65;20.52;;;4.60;99.90;;;;;;4845307;29;20044;-78
2022/01/14 05:17:48;;;;;;;75.35;20.77;;;4.60;99.90;;;;;;4831664;29;20029;-79
2022/01/14 05:20:16;;;;;;;73.85;20.80;;;4.60;99.90;;;;;;4831008;29;20040;-78
2022/01/14 05:22:43;;;;;;;75.50;24.27;;;4.60;99.90;;;;;;4849150;29;20037;-78
2022/01/14 05:25:10;;;;;;;86.68;24.33;;;4.60;99.90;;;;;;4834399;29;20046;-78
2022/01/14 05:27:37;;;;;;;79.45;21.52;;;4.60;99.90;;;;;;4846200;29;20049;-78
2022/01/14 05:30:05;;;;;;;119.13;23.33;;;4.60;99.90;;;;;;4844254;29;20052;-78
2022/01/14 05:32:31;;;;;;;145.90;21.73;;;4.60;99.90;;;;;;4845729;29;20042;-79
2022/01/14 05:34:57;;;;;;;88.80;22.92;;;4.60;99.90;;;;;;4848815;29;20045;-79
2022/01/14 05:37:24;;;;;;;79.05;20.95;;;4.60;99.90;;;;;;4842319;29;20037;-78
2022/01/14 05:39:50;;;;;;;106.60;24.63;;;4.60;99.90;;;;;;4851802;29;20048;-78
2022/01/14 05:42:17;;;;;;;72.38;23.30;;;4.60;99.90;;;;;;4842246;29;20042;-78
2022/01/14 05:44:43;;;;;;;98.82;22.35;;;4.60;99.90;;;;;;4843030;29;20041;-78
2022/01/14 05:47:09;;;;;;;77.68;21.55;;;4.60;99.90;;;;;;4844760;29;20175;-78
2022/01/14 05:49:36;;;;;;;83.28;22.40;;;4.60;99.90;;;;;;4842601;29;20058;-78
2022/01/14 05:52:02;;;;;;;62.67;19.70;;;4.60;99.90;;;;;;4848338;29;20359;-78
2022/01/14 05:54:29;;;;;;;67.30;21.70;;;4.60;99.90;;;;;;4837596;29;20025;-78
2022/01/14 05:56:55;;;;;;;93.90;23.23;;;4.60;99.90;;;;;;4845217;29;20044;-78
2022/01/14 05:59:22;;;;;;;65.32;22.75;;;4.60;99.90;;;;;;4844602;29;20045;-79
2022/01/14 06:01:48;;;;;;;61.60;21.65;;;4.60;99.90;;;;;;4848144;29;20042;-79
2022/01/14 06:04:14;;;;;;;91.03;21.38;;;4.60;99.90;;;;;;4846624;29;20041;-79
2022/01/14 06:06:40;;;;;;;71.22;21.83;;;4.60;99.90;;;;;;4845704;29;20050;-79
2022/01/14 06:09:06;;;;;;;82.93;20.98;;;4.70;99.90;;;;;;4842926;29;20036;-79
2022/01/14 06:11:33;;;;;;;78.25;21.48;;;4.60;99.90;;;;;;4842653;29;20045;-78
2022/01/14 06:13:59;;;;;;;88.68;21.38;;;4.70;99.90;;;;;;4843906;29;20041;-79
2022/01/14 06:16:25;;;;;;;85.10;21.48;;;4.60;99.90;;;;;;4845560;29;20030;-79
2022/01/14 06:18:51;;;;;;;58.40;19.77;;;4.70;99.90;;;;;;4845901;29;20041;-79
2022/01/14 06:21:18;;;;;;;63.90;22.38;;;4.70;99.90;;;;;;4847164;29;20041;-78
2022/01/14 06:23:44;;;;;;;47.80;19.33;;;4.60;99.90;;;;;;4848050;29;20458;-78
2022/01/14 06:26:10;;;;;;;80.45;21.35;;;4.60;99.90;;;;;;4845599;29;20045;-78
2022/01/14 06:28:37;;;;;;;47.55;18.83;;;4.70;99.90;;;;;;4847890;29;20041;-79
2022/01/14 06:31:03;;;;;;;58.40;19.77;;;4.60;99.90;;;;;;4849303;29;20532;-78
2022/01/14 06:33:29;;;;;;;62.67;22.00;;;4.60;99.90;;;;;;4844932;29;20045;-79
2022/01/14 06:35:55;;;;;;;67.88;20.85;;;4.60;99.90;;;;;;4845417;29;20041;-79
2022/01/14 06:38:21;;;;;;;67.50;20.02;;;4.60;99.90;;;;;;4846014;29;20121;-78
2022/01/14 06:40:48;;;;;;;67.70;22.90;;;4.60;99.90;;;;;;4844265;29;20037;-79
2022/01/14 06:43:15;;;;;;;115.93;23.10;;;4.60;99.90;;;;;;4841923;29;20033;-81
2022/01/14 06:45:42;;;;;;;66.80;19.77;;;4.60;99.90;;;;;;4826483;29;20065;-78
2022/01/14 06:48:09;;;;;;;52.33;19.58;;;4.60;99.90;;;;;;4841131;29;20053;-79
2022/01/14 06:50:36;;;;;;;53.42;19.70;;;4.60;99.90;;;;;;4827270;29;20041;-79
2022/01/14 06:53:03;;;;;;;90.88;21.50;;;4.60;99.90;;;;;;4841664;29;20037;-79
2022/01/14 06:55:29;;;;;;;44.00;19.65;;;4.50;99.90;;;;;;4817758;29;20398;-79
2022/01/14 06:57:55;;;;;;;36.13;15.82;;;4.60;99.90;;;;;;4842579;29;20037;-79
2022/01/14 07:00:22;;;;;;;42.83;16.55;;;4.50;99.90;;;;;;4823534;29;20159;-78
2022/01/14 07:02:48;;;;;;;69.65;21.85;;;4.60;99.90;;;;;;4843547;29;20045;-79
2022/01/14 07:05:15;;;;;;;62.53;20.30;;;4.60;99.90;;;;;;4843170;29;20037;-78
2022/01/14 07:07:41;;;;;;;67.70;21.42;;;4.60;99.90;;;;;;4842156;29;20030;-78
2022/01/14 07:10:09;;;;;;;67.97;21.10;;;4.60;99.90;;;;;;4837699;29;20065;-78
2022/01/14 07:12:39;;;;;;;79.60;22.20;;;4.60;99.90;;;;;;4825070;29;20049;-78
2022/01/14 07:15:08;;;;;;;75.43;21.77;;;4.50;99.90;;;;;;4840063;29;20042;-78
2022/01/14 07:17:34;;;;;;;66.90;22.95;;;4.50;99.90;;;;;;4840202;29;20052;-78
2022/01/14 07:20:06;;;;;;;49.92;19.27;;;4.50;99.90;;;;;;4828136;29;20044;-78
2022/01/14 07:22:33;;;;;;;75.63;21.50;;;4.50;99.90;;;;;;4847368;29;20045;-78
2022/01/14 07:24:59;;;;;;;59.83;21.15;;;4.50;99.90;;;;;;4826209;29;20041;-78
2022/01/14 07:27:27;;;;;;;60.03;19.65;;;4.40;99.90;;;;;;4839397;29;20038;-78
2022/01/14 07:29:55;;;;;;;89.90;21.92;;;4.50;99.90;;;;;;4842407;29;20498;-78
2022/01/14 07:32:22;;;;;;;36.05;18.30;;;4.50;99.90;;;;;;4842773;29;20038;-78
2022/01/14 07:34:48;;;;;;;72.15;20.13;;;4.50;99.90;;;;;;4840834;29;20029;-78
2022/01/14 07:37:16;;;;;;;96.18;24.35;;;4.50;99.90;;;;;;4824875;29;20048;-78
2022/01/14 07:39:42;;;;;;;54.17;20.25;;;4.50;99.90;;;;;;4828215;29;20052;-78
2022/01/14 07:42:08;;;;;;;53.95;20.70;;;4.50;99.90;;;;;;4840436;29;20049;-78
2022/01/14 07:44:36;;;;;;;59.28;18.70;;;4.50;99.90;;;;;;4827510;29;20512;-77
2022/01/14 07:47:02;;;;;;;48.00;20.38;;;4.50;99.90;;;;;;4842661;29;20041;-80
2022/01/14 07:49:29;;;;;;;65.28;20.02;;;4.50;99.90;;;;;;4831407;29;20038;-77
2022/01/14 07:51:55;;;;;;;64.90;23.27;;;4.60;99.90;;;;;;4823681;29;20050;-78
2022/01/14 07:54:21;;;;;;;49.10;20.67;;;4.60;99.90;;;;;;4836906;29;20030;-77
2022/01/14 07:56:52;;;;;;;75.15;26.88;;;4.50;99.90;;;;;;4839513;29;20041;-78
2022/01/14 07:59:23;;;;;;;87.50;24.58;;;4.60;99.90;;;;;;4854369;29;20054;-78
2022/01/14 08:01:54;;;;;;;58.28;21.55;;;4.60;99.90;;;;;;4821762;29;20040;-77
2022/01/14 08:04:22;;;;;;;55.15;23.15;;;4.60;99.90;;;;;;4839456;29;20040;-78
2022/01/14 08:06:51;;;;;;;92.57;23.15;;;4.60;99.90;;;;;;4839074;29;20481;-78
2022/01/14 08:09:18;;;;;;;67.38;21.70;;;4.60;99.90;;;;;;4839021;29;20042;-77
2022/01/14 08:11:45;;;;;;;150.57;30.02;;;4.60;99.90;;;;;;4853301;29;20037;-81
2022/01/14 08:14:13;;;;;;;49.03;19.20;;;4.60;99.90;;;;;;4855258;29;20038;-78
2022/01/14 08:16:40;;;;;;;51.15;20.52;;;4.60;99.90;;;;;;4836520;29;20044;-77
2022/01/14 08:19:07;;;;;;;47.75;19.92;;;4.60;99.90;;;;;;4836296;29;20397;-77
2022/01/14 08:21:33;;;;;;;65.88;20.65;;;4.60;99.90;;;;;;4840118;29;20366;-77
2022/01/14 08:24:00;;;;;;;49.45;19.90;;;4.60;99.90;;;;;;4836489;29;20049;-77
2022/01/14 08:26:26;;;;;;;70.20;21.75;;;4.60;99.90;;;;;;4838186;29;20049;-77
2022/01/14 08:28:52;;;;;;;50.97;21.08;;;4.70;99.90;;;;;;4836026;29;20042;-76
2022/01/14 08:31:19;;;;;;;46.03;17.80;;;4.70;99.90;;;;;;4837127;29;20060;-76
2022/01/14 08:33:46;;;;;;;52.78;23.45;;;4.70;99.90;;;;;;4842190;29;20072;-77
2022/01/14 08:36:13;;;;;;;61.58;21.23;;;4.70;99.90;;;;;;4837991;29;20053;-77
2022/01/14 08:38:40;;;;;;;59.58;21.02;;;4.70;99.90;;;;;;4837789;29;20030;-77
2022/01/14 08:41:06;;;;;;;53.42;20.30;;;4.80;99.90;;;;;;4824100;29;20033;-78
2022/01/14 08:43:32;;;;;;;52.75;20.88;;;4.80;99.90;;;;;;4828275;29;20506;-78
2022/01/14 08:46:01;;;;;;;53.88;21.95;;;4.80;99.90;;;;;;4841269;29;20034;-77
2022/01/14 08:48:30;;;;;;;56.40;22.40;;;4.80;99.90;;;;;;4819074;29;20050;-77
2022/01/14 08:50:57;;;;;;;49.00;22.20;;;4.90;99.90;;;;;;4840729;29;20034;-77
2022/01/14 08:53:24;;;;;;;49.42;20.83;;;4.90;99.90;;;;;;4841338;29;20045;-77
2022/01/14 08:55:50;;;;;;;51.00;20.27;;;4.90;99.90;;;;;;4831651;29;20430;-77
2022/01/14 08:58:16;;;;;;;50.83;20.30;;;5.00;99.90;;;;;;4831597;29;20390;-77
2022/01/14 09:00:43;;;;;;;37.42;17.67;;;5.00;99.90;;;;;;4824211;29;20058;-77
2022/01/14 09:03:09;;;;;;;59.40;22.27;;;5.00;99.90;;;;;;4841737;29;20038;-76
2022/01/14 09:05:35;;;;;;;60.13;21.33;;;5.00;99.90;;;;;;4855565;29;20037;-76
2022/01/14 09:08:02;;;;;;;49.90;21.65;;;5.00;99.90;;;;;;4844344;29;20139;-78
2022/01/14 09:10:29;;;;;;;49.28;20.42;;;5.10;99.90;;;;;;4845392;29;20029;-79
2022/01/14 09:12:55;;;;;;;57.63;21.08;;;5.10;99.90;;;;;;4843966;29;20053;-77
2022/01/14 09:15:21;;;;;;;47.10;19.75;;;5.10;99.90;;;;;;4844551;29;20034;-77
2022/01/14 09:17:48;;;;;;;55.15;20.75;;;5.10;99.90;;;;;;4846851;29;20124;-77
2022/01/14 09:20:15;;;;;;;50.47;21.10;;;5.10;99.90;;;;;;4848318;29;20029;-77
2022/01/14 09:22:47;;;;;;;44.50;19.52;;;5.20;99.90;;;;;;4845208;29;20041;-75
2022/01/14 09:25:14;;;;;;;61.53;21.35;;;5.10;99.90;;;;;;4843559;29;20069;-75
2022/01/14 09:27:41;;;;;;;55.10;21.17;;;5.20;99.90;;;;;;4844595;29;20037;-75
2022/01/14 09:30:07;;;;;;;53.53;20.95;;;5.20;99.90;;;;;;4823167;29;20490;-75
2022/01/14 09:32:34;;;;;;;49.25;20.67;;;5.20;99.90;;;;;;4840437;29;20427;-75
2022/01/14 09:35:03;;;;;;;48.88;21.70;;;5.20;99.90;;;;;;4838729;29;20045;-76
2022/01/14 09:37:30;;;;;;;53.42;21.48;;;5.20;99.90;;;;;;4819554;29;20037;-76
2022/01/14 09:39:56;;;;;;;39.90;18.15;;;5.20;99.90;;;;;;4840448;29;20042;-78
2022/01/14 09:42:22;;;;;;;44.80;20.30;;;5.30;99.90;;;;;;4841760;29;20038;-78
2022/01/14 09:44:48;;;;;;;46.08;20.45;;;5.30;99.90;;;;;;4839658;29;20048;-76
2022/01/14 09:47:19;;;;;;;51.67;21.98;;;5.30;99.90;;;;;;4839553;29;20053;-76
2022/01/14 09:49:46;;;;;;;53.78;19.25;;;5.30;99.90;;;;;;4840650;29;20050;-78
2022/01/14 09:52:16;;;;;;;51.78;22.40;;;5.30;99.90;;;;;;4823935;29;20288;-76
2022/01/14 09:54:44;;;;;;;58.00;21.52;;;5.30;99.90;;;;;;4831057;29;20038;-75
2022/01/14 09:57:13;;;;;;;48.13;20.60;;;5.40;99.90;;;;;;4841406;29;20045;-75
2022/01/14 09:59:40;;;;;;;51.35;21.33;;;5.40;99.90;;;;;;4823284;29;20387;-76
2022/01/14 10:02:06;;;;;;;50.92;21.75;;;5.40;99.90;;;;;;4831224;29;20493;-75
2022/01/14 10:04:33;;;;;;;44.80;19.67;;;5.40;99.90;;;;;;4840418;29;20420;-76
2022/01/14 10:07:00;;;;;;;48.83;21.92;;;5.40;99.90;;;;;;4840375;29;20037;-75
2022/01/14 10:09:34;;;;;;;43.03;18.63;;;5.40;99.90;;;;;;4840353;29;20429;-75
2022/01/14 10:12:11;;;;;;;52.40;21.83;;;5.50;99.90;;;;;;4839819;29;20037;-75
2022/01/14 10:14:40;;;;;;;52.45;22.67;;;5.50;99.90;;;;;;4818709;29;20427;-76
2022/01/14 10:17:09;;;;;;;50.83;23.52;;;5.50;99.90;;;;;;4841247;29;20057;-76
2022/01/14 10:19:36;;;;;;;56.20;22.08;;;5.50;99.90;;;;;;4808125;29;20522;-76
2022/01/14 10:22:26;;;;;;;54.25;23.48;;;5.50;99.90;;;;;;4839381;29;20327;-76
2022/01/14 10:25:03;;;;;;;48.72;21.50;;;5.60;99.90;;;;;;4841163;29;20409;-76
2022/01/14 10:27:36;;;;;;;47.85;22.33;;;5.60;99.90;;;;;;4855689;29;20045;-76
2022/01/14 10:30:14;;;;;;;56.83;22.60;;;5.60;99.90;;;;;;4823058;29;20042;-75
2022/01/14 10:32:43;;;;;;;47.85;23.27;;;5.60;99.90;;;;;;4836975;29;20046;-76
2022/01/14 10:35:12;;;;;;;50.58;22.20;;;5.60;99.90;;;;;;4839771;29;20389;-75
2022/01/14 10:37:39;;;;;;;52.65;23.15;;;5.60;99.90;;;;;;4838283;29;20049;-76
2022/01/14 10:40:13;;;;;;;49.22;21.63;;;5.70;99.90;;;;;;4834563;29;20494;-76
2022/01/14 10:42:42;;;;;;;52.90;22.05;;;5.70;99.90;;;;;;4838606;29;20038;-75
2022/01/14 10:45:27;;;;;;;50.20;20.92;;;5.70;99.90;;;;;;4825897;29;20044;-75
2022/01/14 10:48:01;;;;;;;50.05;21.85;;;5.70;99.90;;;;;;4837660;29;20038;-75
2022/01/14 10:50:33;;;;;;;49.17;21.13;;;5.70;99.90;;;;;;4822704;29;20469;-76
2022/01/14 10:53:01;;;;;;;48.17;22.60;;;5.70;99.90;;;;;;4824776;29;20045;-76
2022/01/14 10:55:43;;;;;;;48.20;22.38;;;5.70;99.90;;;;;;4839569;29;20034;-75
2022/01/14 10:58:24;;;;;;;45.67;21.35;;;5.70;99.90;;;;;;4839108;29;20034;-76
2022/01/14 11:01:04;;;;;;;34.80;17.58;;;5.70;99.90;;;;;;4834306;29;20050;-75
2022/01/14 11:03:53;;;;;;;45.45;20.75;;;5.70;99.90;;;;;;4837391;29;20050;-76
2022/01/14 11:06:27;;;;;;;45.17;20.42;;;5.80;99.90;;;;;;4842186;29;20037;-76
2022/01/14 11:09:10;;;;;;;53.88;23.15;;;5.80;99.90;;;;;;4838398;29;20398;-76
2022/01/14 11:11:40;;;;;;;;;;;5.80;99.90;;;;;;4840019;29;20030;-76
2022/01/14 11:14:08;;;;;;;54.30;21.90;;;5.80;99.90;;;;;;4837408;29;19920;-76
2022/01/14 11:16:35;;;;;;;50.25;22.23;;;5.80;99.90;;;;;;4831426;29;20045;-76
2022/01/14 11:19:03;;;;;;;44.80;22.25;;;5.80;99.90;;;;;;4838896;29;20037;-76
2022/01/14 11:24:23;;;;;;;52.63;23.23;;;5.90;99.90;;;;;;4843043;29;20049;-76
2022/01/14 11:26:52;;;;;;;44.35;21.48;;;5.90;99.90;;;;;;4840406;29;20048;-81
2022/01/14 11:29:21;;;;;;;40.15;21.73;;;5.90;99.90;;;;;;4838536;29;20041;-78
2022/01/14 11:32:02;;;;;;;43.17;21.38;;;5.90;99.90;;;;;;4841436;29;20402;-76
2022/01/14 11:34:37;;;;;;;46.03;22.17;;;5.90;99.90;;;;;;4842852;29;20034;-78
2022/01/14 11:37:08;;;;;;;48.70;21.90;;;5.90;99.90;;;;;;4840986;29;20034;-76
2022/01/14 11:39:37;;;;;;;49.38;21.98;;;5.90;99.90;;;;;;4825737;29;20500;-76
2022/01/14 11:42:08;;;;;;;48.83;23.25;;;5.90;99.90;;;;;;4839870;29;20040;-76
2022/01/14 11:44:41;;;;;;;50.45;23.15;;;6.00;99.90;;;;;;4825334;29;20042;-76
2022/01/14 11:47:29;;;;;;;48.08;22.83;;;5.90;99.90;;;;;;4824165;29;20052;-76
2022/01/14 11:49:57;;;;;;;47.88;24.55;;;5.90;99.90;;;;;;4828713;29;20053;-75
2022/01/14 11:52:41;;;;;;;48.75;23.67;;;6.00;99.90;;;;;;4842793;29;20029;-76
2022/01/14 11:55:30;;;;;;;49.10;24.40;;;6.00;99.90;;;;;;4836867;29;20283;-76
2022/01/14 11:58:09;;;;;;;55.20;25.80;;;6.10;99.90;;;;;;4834798;29;20050;-75
2022/01/14 12:00:39;;;;;;;55.47;25.52;;;6.10;99.90;;;;;;4835013;29;20596;-76
2022/01/14 12:03:12;;;;;;;52.90;24.83;;;6.10;99.90;;;;;;4821429;29;20045;-76
2022/01/14 12:05:58;;;;;;;48.35;26.10;;;6.10;99.90;;;;;;4834452;29;20052;-76
2022/01/14 12:08:35;;;;;;;50.28;25.08;;;6.10;99.90;;;;;;4838256;29;20038;-75
2022/01/14 12:11:07;;;;;;;51.90;24.67;;;6.10;99.90;;;;;;4828096;29;20048;-76
2022/01/14 12:14:04;;;;;;;42.10;22.20;;;6.10;99.90;;;;;;4836523;29;20524;-76
2022/01/14 12:18:59;;;;;;;48.08;24.25;;;6.20;99.90;;;;;;4823869;29;20045;-76
2022/01/14 12:21:37;;;;;;;49.33;24.67;;;6.30;99.90;;;;;;4830796;29;20445;-75
2022/01/14 12:24:27;;;;;;;49.50;24.60;;;6.30;99.90;;;;;;4835861;29;20497;-75
2022/01/14 12:27:11;;;;;;;44.75;23.95;;;6.20;99.90;;;;;;4816608;29;20528;-77
2022/01/14 12:29:40;;;;;;;47.20;23.48;;;6.30;99.90;;;;;;4839369;29;20045;-77
2022/01/14 12:32:13;;;;;;;50.92;25.95;;;6.30;99.90;;;;;;4838543;29;20037;-77
2022/01/14 12:35:01;;;;;;;46.55;23.85;;;6.30;99.90;;;;;;4837064;29;20054;-77
2022/01/14 12:37:30;;;;;;;40.80;20.80;;;6.30;99.90;;;;;;4836259;29;20054;-77
2022/01/14 12:40:03;;;;;;;45.40;23.05;;;6.40;99.90;;;;;;4839514;29;20042;-77
2022/01/14 12:42:29;;;;;;;50.75;25.05;;;6.30;99.90;;;;;;4837929;29;20521;-78
2022/01/14 12:44:56;;;;;;;50.13;23.80;;;6.30;99.90;;;;;;4838190;29;20245;-77
2022/01/14 12:47:25;;;;;;;50.03;24.55;;;6.40;99.90;;;;;;4837660;29;20037;-78
2022/01/14 12:49:52;;;;;;;49.97;25.15;;;6.30;99.90;;;;;;4837322;29;20041;-77
2022/01/14 12:52:37;;;;;;;44.55;23.80;;;6.30;99.90;;;;;;4838087;29;20030;-77
2022/01/14 12:55:10;;;;;;;55.85;26.98;;;6.30;99.90;;;;;;4838881;29;20516;-77
2022/01/14 12:57:37;;;;;;;51.92;24.90;;;6.30;99.90;;;;;;4831825;29;20042;-77
2022/01/14 13:00:09;;;;;;;45.45;23.52;;;6.30;99.90;;;;;;4840636;29;20046;-77
2022/01/14 13:02:35;;;;;;;54.83;29.10;;;6.30;99.90;;;;;;4848562;29;20034;-77
2022/01/14 13:05:03;;;;;;;49.33;24.85;;;6.30;99.90;;;;;;4822999;29;20056;-77
2022/01/14 13:07:30;;;;;;;53.58;26.15;;;6.40;99.90;;;;;;4840151;29;20045;-77
2022/01/14 13:09:56;;;;;;;47.10;25.92;;;6.30;99.90;;;;;;4834502;29;20067;-77
2022/01/14 13:12:24;;;;;;;43.75;24.38;;;6.40;99.90;;;;;;4836327;29;20030;-77
2022/01/14 13:15:03;;;;;;;51.13;25.73;;;6.40;99.90;;;;;;4839207;29;20034;-77
2022/01/14 13:17:33;;;;;;;53.30;25.63;;;6.40;99.90;;;;;;4822312;29;20038;-77